• Join FlightAware (Why Join?)
  • Login
  • US Flag 
12:40AM EDT


 

Airport Tracker/Info


-or-


 

Live Flight TrackerFlight Track Log ✈ N43451 ✈ 02-Jul-2013 ✈ KEYE - KOWI

Flight Track Log - Related Links

Times and Time Zones

All times are in EDT time to prevent confusion due to time zone crossing. See the N43451 flight status page for this flight to view local times or setup timezone preferences in your user account.

Time Position Orientation Groundspeed Altitude Reporting Facility
EDT Latitude Longitude Course Direction KTS MPH feet Rate Location/Type
01:50PM 39.8333 -86.2833 339° North 79 91 1,200  Level Indianapolis TRACON
01:51PM 39.8667 -86.3000 339° North 109 125 1,800 300 Climbing Indianapolis TRACON
01:52PM 39.8667 -86.3333 270° West 120 138 2,000 240 Climbing Indianapolis TRACON
01:53PM 39.8667 -86.3667 270° West 115 132 2,300 240 Climbing Indianapolis TRACON
01:54PM 39.8742 -86.3936 290° West 115 132 2,400 120 Climbing Indianapolis Center
01:55PM 39.8775 -86.4381 276° West 120 138 2,500  Climbing Indianapolis Center
01:56PM 39.8825 -86.4922 277° West 124 143 2,500 -60 Level Indianapolis Center
01:57PM 39.8861 -86.5386 276° West 127 146 2,400 -60 Descending Indianapolis Center
01:58PM 39.8894 -86.5853 275° West 129 148 2,400 240 Level Indianapolis Center
01:59PM 39.8911 -86.6286 273° West 126 145 2,900 480 Climbing Indianapolis Center
02:00PM 39.8939 -86.6744 275° West 126 145 3,400 480 Climbing Indianapolis Center
02:01PM 39.8978 -86.7169 277° West 123 142 3,900 480 Climbing Indianapolis Center
02:02PM 39.9036 -86.7608 280° West 123 142 4,400 360 Climbing Indianapolis Center
02:03PM 39.9083 -86.8183 276° West 128 147 4,700 240 Climbing Indianapolis Center
02:04PM 39.9106 -86.8706 273° West 136 157 5,000 360 Climbing Indianapolis Center
02:05PM 39.9144 -86.9181 276° West 137 158 5,500 480 Climbing Indianapolis Center
02:06PM 39.9175 -86.9617 275° West 127 146 6,000 480 Climbing Indianapolis Center
02:07PM 39.9197 -87.0058 274° West 124 143 6,600 240 Climbing Indianapolis Center
02:08PM 39.9206 -87.0553 271° West 132 152 6,500 -120 Descending Indianapolis Center
02:09PM 39.9278 -87.1069 280° West 142 163 6,400  Descending Indianapolis Center
02:10PM 39.9325 -87.1703 276° West 146 168 6,500  Climbing Indianapolis Center
02:11PM 39.9347 -87.2239 273° West 148 170 6,500 -60 Level Indianapolis Center
02:12PM 39.9389 -87.2772 276° West 147 169 6,400 -60 Descending Indianapolis Center
02:13PM 39.9436 -87.3289 277° West 146 168 6,400  Level Indianapolis Center
02:14PM 39.9486 -87.3900 276° West 146 168 6,500  Climbing Indianapolis Center
02:15PM 39.9486 -87.4436 270° West 146 168 6,500  Level Indianapolis Center
02:16PM 39.9489 -87.4969 270° West 147 169 6,500 -60 Level Indianapolis Center
02:18PM 39.9536 -87.5614 275° West 149 171 6,400 -60 Descending Indianapolis Center
02:19PM 39.9592 -87.6142 278° West 149 171 6,400  Level Indianapolis Center
02:20PM 39.9656 -87.6661 279° West 145 167 6,500  Climbing Indianapolis Center
02:21PM 39.9706 -87.7203 277° West 150 173 6,500  Level Indianapolis Center
02:22PM 39.9761 -87.7742 278° West 151 174 6,500  Level Indianapolis Center
02:23PM 39.9808 -87.8283 277° West 150 173 6,500  Level Indianapolis Center
02:24PM 39.9856 -87.8819 277° West 150 173 6,500  Level Indianapolis Center
02:25PM 39.9914 -87.9367 278° West 151 174 6,500  Level Chicago Center
02:26PM 39.9961 -88.0014 275° West 150 173 6,500  Level Chicago Center
02:27PM 40.0011 -88.0553 277° West 151 174 6,500  Level Chicago Center
02:28PM 40.0061 -88.1094 277° West 151 174 6,500  Level Chicago Center
02:29PM 40.0100 -88.1661 275° West 150 173 6,500  Level Chicago Center
02:30PM 40.0150 -88.2197 277° West 150 173 6,500  Level Chicago Center
02:31PM 40.0214 -88.2725 279° West 147 169 6,500  Level Chicago Center
02:32PM 40.0244 -88.3269 274° West 150 173 6,500  Level Chicago Center
02:33PM 40.0292 -88.3806 277° West 149 171 6,500  Level Chicago Center
02:34PM 40.0339 -88.4447 276° West 149 171 6,500  Level Chicago Center
02:35PM 40.0386 -88.4989 277° West 150 173 6,500  Level Chicago Center
02:36PM 40.0439 -88.5522 277° West 149 171 6,500  Level Chicago Center
02:37PM 40.0478 -88.6056 275° West 148 170 6,500  Level Chicago Center
02:38PM 40.0486 -88.6589 271° West 148 170 6,600  Climbing Chicago Center
02:39PM 40.0336 -88.7108 249° West 151 174 6,600  Level Chicago Center
02:40PM 40.0200 -88.7603 250° West 148 170 6,600 -60 Level Chicago Center
02:41PM 40.0033 -88.8222 251° West 149 171 6,500  Descending Chicago Center
02:42PM 39.9892 -88.8733 250° West 149 171 6,600  Climbing Chicago Center
02:43PM 39.9750 -88.9233 250° West 148 170 6,500 -60 Descending Chicago Center
02:44PM 39.9650 -88.9756 256° West 148 170 6,500  Level Chicago Center
02:45PM 39.9539 -89.0289 255° West 150 173 6,500  Level Chicago Center
02:46PM 39.9456 -89.0817 258° West 151 174 6,500  Level Chicago Center
02:47PM 39.9369 -89.1433 260° West 148 170 6,500  Level Chicago Center
02:48PM 39.9333 -89.1639 257° West 147 169 6,500  Level Kansas City Center
02:49PM 39.9225 -89.2294 258° West 149 171 6,500  Level Kansas City Center
02:50PM 39.9136 -89.2800 257° West 147 169 6,500  Level Kansas City Center
02:51PM 39.9036 -89.3328 256° West 149 171 6,500  Level Kansas City Center
02:52PM 39.8939 -89.3864 257° West 151 174 6,500  Level Kansas City Center
02:53PM 39.8861 -89.4397 259° West 151 174 6,500  Level Kansas City Center
02:54PM 39.8789 -89.4933 260° West 150 173 6,500  Level Kansas City Center
02:55PM 39.8783 -89.5450 269° West 146 168 6,600  Climbing Kansas City Center
02:56PM 39.8756 -89.6097 267° West 148 170 6,600 -60 Level Kansas City Center
02:57PM 39.8797 -89.6614 276° West 146 168 6,500 -120 Descending Kansas City Center
02:58PM 39.8850 -89.7128 278° West 144 166 6,400 -240 Descending Kansas City Center
02:59PM 39.8828 -89.7675 267° West 148 170 6,000 -480 Descending Kansas City Center
03:00PM 39.8700 -89.8269 254° West 165 190 5,400 -600 Descending Kansas City Center
03:01PM 39.8664 -89.8836 265° West 161 185 4,800 -420 Descending Kansas City Center
03:02PM 39.8689 -89.9514 273° West 157 181 4,600 -180 Descending Kansas City Center
03:04PM 39.8717 -90.0053 274° West 152 175 4,500 -120 Descending Kansas City Center
03:05PM 39.8728 -90.0606 272° West 152 175 4,400  Descending Kansas City Center
03:06PM 39.8661 -90.1136 261° West 151 174 4,500  Climbing Kansas City Center
03:07PM 39.8575 -90.1661 258° West 149 171 4,400 -60 Descending Kansas City Center
03:08PM 39.8494 -90.2219 259° West 154 177 4,400  Level Kansas City Center
03:09PM 39.8392 -90.2778 257° West 158 182 4,500 60 Climbing Kansas City Center
03:10PM 39.8269 -90.3394 256° West 150 173 4,600  Climbing Kansas City Center
03:11PM 39.8186 -90.3958 259° West 153 176 4,600  Level Kansas City Center
03:12PM 39.8086 -90.4511 257° West 156 180 4,700  Climbing Kansas City Center
03:13PM 39.7994 -90.5050 258° West 153 176 4,700 -60 Level Kansas City Center
03:14PM 39.7917 -90.5578 259° West 151 174 4,600 -60 Descending Kansas City Center
03:15PM 39.7858 -90.6111 262° West 149 171 4,600  Level Kansas City Center
03:16PM 39.7811 -90.6636 263° West 147 169 4,600 -120 Level Kansas City Center
03:17PM 39.7756 -90.7242 263° West 143 165 4,400 -60 Descending Kansas City Center
03:18PM 39.7731 -90.7772 267° West 144 166 4,500  Climbing Kansas City Center
03:19PM 39.7731 -90.8297 270° West 146 168 4,500  Level Kansas City Center
03:20PM 39.7650 -90.8808 258° West 145 167 4,500  Level Kansas City Center
03:21PM 39.7619 -90.9303 265° West 140 161 4,500 -60 Level Kansas City Center
03:22PM 39.7597 -90.9858 267° West 143 165 4,400  Descending Kansas City Center
03:23PM 39.7489 -91.0361 254° West 145 167 4,500  Climbing Kansas City Center
03:24PM 39.7353 -91.0853 250° West 144 166 4,500  Level Kansas City Center
03:25PM 39.7228 -91.1472 255° West 146 168 4,600  Climbing Kansas City Center
03:26PM 39.7153 -91.1961 259° West 142 163 4,600 -60 Level Kansas City Center
03:27PM 39.7083 -91.2444 259° West 138 159 4,500 -120 Descending Kansas City Center
03:28PM 39.7033 -91.2953 263° West 140 161 4,400  Descending Kansas City Center
03:29PM 39.6953 -91.3422 257° West 139 160 4,500  Climbing Kansas City Center
03:30PM 39.6864 -91.3928 257° West 141 162 4,500  Level Kansas City Center
03:31PM 39.6747 -91.4517 256° West 141 162 4,500  Level Kansas City Center
03:32PM 39.6636 -91.5008 254° West 143 165 4,600  Climbing Kansas City Center
03:33PM 39.6544 -91.5508 257° West 143 165 4,500 -60 Descending Kansas City Center
03:34PM 39.6447 -91.6011 256° West 145 167 4,500  Level Kansas City Center
03:35PM 39.6342 -91.6517 255° West 146 168 4,500 -60 Level Kansas City Center
03:36PM 39.6214 -91.7108 254° West 144 166 4,400 -60 Descending Kansas City Center
03:38PM 39.6117 -91.7606 256° West 145 167 4,400  Level Kansas City Center
03:39PM 39.6008 -91.8075 253° West 140 161 4,500  Climbing Kansas City Center
03:40PM 39.5917 -91.8572 257° West 141 162 4,500  Level Kansas City Center
03:41PM 39.5842 -91.9061 259° West 141 162 4,500 -60 Level Kansas City Center
03:42PM 39.5769 -91.9544 259° West 139 160 4,400 -60 Descending Kansas City Center
03:43PM 39.5658 -92.0128 256° West 139 160 4,400  Level Kansas City Center
03:44PM 39.5558 -92.0636 256° West 144 166 4,500  Climbing Kansas City Center
03:45PM 39.5481 -92.1131 258° West 142 163 4,500  Level Kansas City Center
03:46PM 39.5383 -92.1636 256° West 144 166 4,500  Level Kansas City Center
03:47PM 39.5311 -92.2133 259° West 143 165 4,500 -60 Level Kansas City Center
03:48PM 39.5231 -92.2611 258° West 139 160 4,400 -60 Descending Kansas City Center
03:49PM 39.5125 -92.3208 257° West 141 162 4,400  Level Kansas City Center
03:50PM 39.5044 -92.3681 258° West 139 160 4,400  Level Kansas City Center
03:51PM 39.4956 -92.4147 256° West 135 155 4,500  Climbing Kansas City Center
03:52PM 39.4864 -92.4636 256° West 138 159 4,500 -60 Level Kansas City Center
03:53PM 39.4775 -92.5122 257° West 140 161 4,400 -120 Descending Kansas City Center
03:54PM 39.4683 -92.5672 258° West 135 155 4,300  Descending Kansas City Center
03:55PM 39.4600 -92.6144 257° West 134 154 4,400  Climbing Kansas City Center
03:56PM 39.4514 -92.6603 256° West 133 153 4,400  Level Kansas City Center
03:57PM 39.4408 -92.7069 254° West 134 154 4,500 60 Climbing Kansas City Center
03:58PM 39.4303 -92.7542 254° West 138 159 4,600 120 Climbing Kansas City Center
03:59PM 39.4211 -92.8050 257° West 142 163 4,800 -60 Climbing Kansas City Center
04:00PM 39.4100 -92.8631 256° West 140 161 4,500 -240 Descending Kansas City Center
04:01PM 39.4017 -92.9111 257° West 140 161 4,400 -120 Descending Kansas City Center
04:02PM 39.3944 -92.9589 259° West 138 159 4,300  Descending Kansas City Center
04:03PM 39.3806 -93.0047 249° West 138 159 4,500  Climbing Kansas City Center
04:04PM 39.3664 -93.0494 248° West 137 158 4,400  Descending Kansas City Center
04:05PM 39.3517 -93.1033 251° West 135 155 4,500 60 Climbing Kansas City Center
04:06PM 39.3394 -93.1494 251° West 136 157 4,600  Climbing Kansas City Center
04:07PM 39.3256 -93.1972 249° West 138 159 4,600  Level Kansas City Center
04:08PM 39.3136 -93.2444 252° West 139 160 4,700 60 Climbing Kansas City Center
04:10PM 39.2994 -93.2897 248° West 139 160 4,800  Climbing Kansas City Center
04:11PM 39.2819 -93.3439 247° West 138 159 4,700 -60 Descending Kansas City Center
04:12PM 39.2686 -93.3914 250° West 139 160 4,700  Level Kansas City Center
04:13PM 39.2556 -93.4431 252° West 139 160 4,700  Level Kansas City Center
04:14PM 39.2461 -93.4831 253° West 137 158 4,700  Level Kansas City Center
04:15PM 39.2411 -93.5353 263° West 140 161 4,700  Level Kansas City Center
04:16PM 39.2283 -93.5892 253° West 141 162 4,800  Climbing Kansas City Center
04:17PM 39.2189 -93.6350 255° West 140 161 4,700 -60 Descending Kansas City Center
04:18PM 39.2039 -93.6861 249° West 137 158 4,700  Level Kansas City Center
04:19PM 39.1933 -93.7311 253° West 136 157 4,800  Climbing Kansas City Center
04:20PM 39.1806 -93.7839 253° West 138 159 4,800 -60 Level Kansas City Center
04:21PM 39.1694 -93.8297 253° West 139 160 4,700 -60 Descending Kansas City Center
04:22PM 39.1581 -93.8819 254° West 135 155 4,700 -60 Level Kansas City Center
04:23PM 39.1453 -93.9275 250° West 140 161 4,600 -60 Descending Kansas City Center
04:24PM 39.1308 -93.9792 250° West 138 159 4,600  Level Kansas City Center
04:25PM 39.1186 -94.0239 251° West 138 159 4,700  Climbing Kansas City Center
04:26PM 39.1047 -94.0767 251° West 139 160 4,600 -120 Descending Kansas City Center
04:27PM 39.0919 -94.1206 249° West 139 160 4,500 -60 Descending Kansas City Center
04:28PM 39.0783 -94.1644 248° West 138 159 4,500  Level Kansas City Center
04:29PM 39.0628 -94.2136 248° West 133 153 4,500  Level Kansas City Center
04:30PM 39.0450 -94.2547 241° Southwest 135 155 4,500  Level Kansas City Center
04:31PM 39.0225 -94.3006 238° Southwest 135 155 4,500  Level Kansas City Center
04:32PM 39.0033 -94.3397 238° Southwest 135 155 4,500  Level Kansas City Center
04:33PM 38.9814 -94.3853 238° Southwest 135 155 4,500  Level Kansas City Center
04:34PM 38.9608 -94.4236 235° Southwest 136 157 4,500 -60 Level Kansas City Center
04:35PM 38.9372 -94.4692 236° Southwest 137 158 4,400  Descending Kansas City Center
04:36PM 38.9172 -94.5081 237° Southwest 135 155 4,500  Climbing Kansas City Center
04:37PM 38.8944 -94.5558 239° Southwest 140 161 4,500 60 Level Kansas City Center
04:38PM 38.8733 -94.5958 236° Southwest 141 162 4,700  Climbing Kansas City Center
04:39PM 38.8486 -94.6456 237° Southwest 146 168 4,600 -60 Descending Kansas City Center
04:41PM 38.8278 -94.6853 236° Southwest 143 165 4,600 -60 Level Kansas City Center
04:42PM 38.8097 -94.7264 241° Southwest 139 160 4,500 -60 Descending Kansas City Center
04:43PM 38.7847 -94.7686 233° Southwest 133 153 4,500 -60 Level Kansas City Center
04:44PM 38.7642 -94.8031 233° Southwest 129 148 4,400  Descending Kansas City Center
04:45PM 38.7431 -94.8461 238° Southwest 129 148 4,500 60 Climbing Kansas City Center
04:46PM 38.7217 -94.8825 233° Southwest 132 152 4,600  Climbing Kansas City Center
04:47PM 38.6939 -94.9236 229° Southwest 137 158 4,600  Level Kansas City Center
04:48PM 38.6689 -94.9592 228° Southwest 140 161 4,700 60 Climbing Kansas City Center